Laings, Ohio
Current Conditions -  °F | °C
As of 7:53 PM on Monday 24 Nov 2014 (Local Time) from KPKB Reporting Station
Clear Clear  
Wind Chill: 51°   Ceiling: Unl
Heat Index: 51°   Visibility: 10mi
Dew Point: 36°   Wind: 14mph
Humidity: 56%   Direction: 280°W
Pressure: 29.82"   Gusts: 21mph
Location:  39.72°N, 81.01°W
Report Text: KPKB 250053Z 28012G18KT 10SM CLR 11/02 A2982 RMK AO2 PK WND 28030/0033 SLP097 T01060022
Loading
Personal Weather Stations






























Interactive Weather Map New forecast layout! Learn more

10-Day Weather Forecast

Advertisements
Track Severe Weather on mobile